Suomigracht — PHBT — position and weather

sailwx.info

Track history (hours):
 
Tides and Currents Weather Stations Pressure Air Temp Water Temp Dewpoint Dewpoint Depression Visibility Wind Speed Wind Dir Waves Ship Positions

Suomigracht

Last reported at 2018-Dec-11 15:30 UTC. Time now 2018-Dec-11 15:46 UTC.
Position N 19°26' W 096°03'.

Length 173 m; beam 26 m.

Type: Cargo ship. MMSI: 246100000.

Date/timePositionNaut miles runAvg speedWind from/ knotsBaromVisibWave heightAir tempDewpointWater temp
2018-Dec-11 15:30N 19°26' W 096°03'1 1.4
2018-Dec-11 15:00N 19°25' W 096°03'1 1.6
2018-Dec-11 14:30N 19°24' W 096°03'1 2.3
2018-Dec-11 14:00N 19°23' W 096°04'2 4.9
2018-Dec-11 13:30N 19°25' W 096°05'2 4.7
2018-Dec-11 13:01N 19°27' W 096°06'2 5.0
2018-Dec-11 12:30N 19°30' W 096°07'2 4.7
2018-Dec-11 12:00N 19°32' W 096°08'0 0.7
2018-Dec-11 11:31N 19°31' W 096°08'1 1.1
2018-Dec-11 11:00N 19°31' W 096°08'1 1.2
2018-Dec-11 10:30N 19°30' W 096°08'1 1.4
2018-Dec-11 10:00N 19°30' W 096°07'1 1.6
2018-Dec-11 09:30N 19°29' W 096°07'1 1.6
2018-Dec-11 09:00N 19°29' W 096°06'1 1.7
2018-Dec-11 08:30N 19°28' W 096°06'1 1.7
2018-Dec-11 08:00N 19°27' W 096°05'1 1.8
2018-Dec-11 07:30N 19°26' W 096°05'1 1.7
2018-Dec-11 07:01N 19°26' W 096°04'1 1.5
2018-Dec-11 06:30N 19°25' W 096°04'1 1.4
2018-Dec-11 06:01N 19°25' W 096°03'1 1.3
2018-Dec-11 05:30N 19°24' W 096°03'1 1.2
2018-Dec-11 05:00N 19°24' W 096°02'0 0.4
2018-Dec-11 04:30N 19°24' W 096°03'3 5.0
2018-Dec-11 04:00N 19°26' W 096°04'5 9.6
2018-Dec-11 03:30N 19°30' W 096°06'  
2018-Dec-07 02:29N 29°21' W 094°47'612.3
2018-Dec-07 02:00N 29°26' W 094°50'612.4
2018-Dec-07 01:29N 29°32' W 094°53'612.7
2018-Dec-07 01:01N 29°37' W 094°57'611.5
2018-Dec-07 00:31N 29°42' W 094°60'4 8.1
2018-Dec-07 00:00N 29°44' W 095°04'3 5.3
2018-Dec-06 23:30N 29°44' W 095°07'3 5.4
2018-Dec-06 23:00N 29°45' W 095°10'3 5.9
2018-Dec-06 22:29N 29°43' W 095°13'1 0.1
2018-Dec-05 21:37N 29°43' W 095°15'1 6.2
2018-Dec-05 21:29N 29°43' W 095°14'3 5.6
2018-Dec-05 20:57N 29°45' W 095°11'3 6.6
2018-Dec-05 20:29N 29°44' W 095°07'1 0.1
2018-Dec-05 14:06N 29°45' W 095°06'0 0.0
2018-Dec-05 13:27N 29°45' W 095°06'0 0.0
2018-Dec-05 12:36N 29°45' W 095°06'0 0.0
2018-Dec-05 12:27N 29°45' W 095°06'0 0.0
2018-Dec-05 11:18N 29°45' W 095°06'0 0.0
2018-Dec-05 10:57N 29°45' W 095°06'0 0.0
2018-Dec-05 10:30N 29°45' W 095°06'0 0.0
2018-Dec-05 09:54N 29°45' W 095°06'0 0.0
2018-Dec-05 09:30N 29°45' W 095°06'0 0.0
2018-Dec-05 08:57N 29°45' W 095°06'0 0.0
2018-Dec-05 07:33N 29°45' W 095°06'0 0.0
2018-Dec-05 07:30N 29°45' W 095°06'0 0.0
2018-Dec-05 05:33N 29°45' W 095°06'0 0.0
2018-Dec-05 05:27N 29°45' W 095°06'0 0.0
2018-Dec-05 04:45N 29°45' W 095°06'0 0.0
2018-Dec-05 04:30N 29°45' W 095°06'0 0.0
2018-Dec-05 03:48N 29°45' W 095°06'0 0.0
2018-Dec-04 15:29N 29°45' W 095°06'0 0.0
2018-Dec-04 14:35N 29°45' W 095°06'0 0.0
2018-Dec-04 13:47N 29°45' W 095°06'0 0.0
2018-Dec-04 13:29N 29°45' W 095°06'0 0.0
2018-Dec-04 12:47N 29°45' W 095°06'0 0.0
2018-Dec-04 12:20N 29°45' W 095°06'0 0.0
2018-Dec-04 11:56N 29°45' W 095°06'0 0.0
2018-Dec-03 13:47N 29°45' W 095°06'0 0.0
2018-Dec-03 13:29N 29°45' W 095°06'0 0.0
2018-Dec-03 12:47N 29°45' W 095°06'0 0.0
2018-Dec-03 12:02N 29°45' W 095°06'0 0.1
2018-Dec-03 11:59N 29°45' W 095°06'0 0.0
2018-Dec-03 11:23N 29°45' W 095°06'0 0.0
2018-Dec-03 10:35N 29°45' W 095°06'0 0.0
2018-Dec-03 10:26N 29°45' W 095°06'0 0.0
2018-Dec-03 09:59N 29°45' W 095°06'0 0.0
2018-Dec-03 09:14N 29°45' W 095°06'0 0.0
2018-Dec-03 08:35N 29°45' W 095°06'0 0.0
2018-Dec-03 08:20N 29°45' W 095°06'0 0.0
2018-Dec-03 07:56N 29°45' W 095°06'0 0.0
2018-Dec-03 06:17N 29°45' W 095°06'0 0.0
2018-Dec-03 05:56N 29°45' W 095°06'0 0.0
2018-Dec-03 05:26N 29°45' W 095°06'0 0.0
2018-Dec-03 04:58N 29°45' W 095°06'0 0.0
2018-Dec-03 04:28N 29°45' W 095°06'0 0.0
2018-Dec-03 03:43N 29°45' W 095°06'0 0.0
2018-Dec-03 03:16N 29°45' W 095°06'0 0.0
2018-Dec-02 20:57N 29°45' W 095°06'2 3.7
2018-Dec-02 20:29N 29°46' W 095°05'4 7.4
2018-Dec-02 20:00N 29°44' W 095°02'4 7.8
2018-Dec-02 19:30N 29°41' W 094°59'510.4
2018-Dec-02 19:00N 29°36' W 094°57'713.4
2018-Dec-02 18:30N 29°30' W 094°52'713.7
2018-Dec-02 18:00N 29°24' W 094°49'611.7
2018-Dec-02 17:29N 29°21' W 094°43'713.4
2018-Dec-02 16:58N 29°18' W 094°36'512.1
2018-Dec-02 16:30N 29°14' W 094°31'714.4
2018-Dec-02 16:00N 29°10' W 094°24'714.4
2018-Dec-02 15:30N 29°06' W 094°17'713.9
2018-Dec-02 15:00N 29°02' W 094°11'713.8
2018-Dec-02 14:30N 28°58' W 094°04'713.8
2018-Dec-02 14:00N 28°54' W 093°58'713.9
2018-Dec-02 13:31N 28°50' W 093°52'714.0
2018-Dec-02 13:00N 28°46' W 093°45'714.0
2018-Dec-02 12:31N 28°42' W 093°38'714.0
2018-Dec-02 12:01N 28°38' W 093°32'714.0
2018-Dec-02 11:30N 28°34' W 093°25'713.8
2018-Dec-02 11:00N 28°30' W 093°19'714.5
2018-Dec-02 10:30N 28°26' W 093°12'715.0
2018-Dec-02 10:00N 28°21' W 093°06'816.1
2018-Dec-02 09:30N 28°16' W 092°58'815.7
2018-Dec-02 09:00N 28°11' W 092°51'816.0
2018-Dec-02 08:30N 28°05' W 092°46'816.2
2018-Dec-02 08:00N 27°59' W 092°40'816.5
2018-Dec-02 07:30N 27°52' W 092°34'815.6
2018-Dec-02 07:00N 27°48' W 092°27'1016.1
2018-Dec-02 06:22N 27°43' W 092°17'  
Track history (hours):
 
Tides and Currents Weather Stations Pressure Air Temp Water Temp Dewpoint Dewpoint Depression Visibility Wind Speed Wind Dir Waves Ship Positions

Suomigracht

Last reported at 2018-Dec-11 15:30 UTC. Time now 2018-Dec-11 15:46 UTC.
Position N 19°26' W 096°03'.

Length 173 m; beam 26 m.

Type: Cargo ship. MMSI: 246100000.

Date/timePositionNaut miles runAvg speedWind from/ knotsBaromVisibWave heightAir tempDewpointWater temp
2018-Dec-11 15:30N 19°26' W 096°03'1 1.4
2018-Dec-11 15:00N 19°25' W 096°03'1 1.6
2018-Dec-11 14:30N 19°24' W 096°03'1 2.3
2018-Dec-11 14:00N 19°23' W 096°04'2 4.9
2018-Dec-11 13:30N 19°25' W 096°05'2 4.7
2018-Dec-11 13:01N 19°27' W 096°06'2 5.0
2018-Dec-11 12:30N 19°30' W 096°07'2 4.7
2018-Dec-11 12:00N 19°32' W 096°08'0 0.7
2018-Dec-11 11:31N 19°31' W 096°08'1 1.1
2018-Dec-11 11:00N 19°31' W 096°08'1 1.2
2018-Dec-11 10:30N 19°30' W 096°08'1 1.4
2018-Dec-11 10:00N 19°30' W 096°07'1 1.6
2018-Dec-11 09:30N 19°29' W 096°07'1 1.6
2018-Dec-11 09:00N 19°29' W 096°06'1 1.7
2018-Dec-11 08:30N 19°28' W 096°06'1 1.7
2018-Dec-11 08:00N 19°27' W 096°05'1 1.8
2018-Dec-11 07:30N 19°26' W 096°05'1 1.7
2018-Dec-11 07:01N 19°26' W 096°04'1 1.5
2018-Dec-11 06:30N 19°25' W 096°04'1 1.4
2018-Dec-11 06:01N 19°25' W 096°03'1 1.3
2018-Dec-11 05:30N 19°24' W 096°03'1 1.2
2018-Dec-11 05:00N 19°24' W 096°02'0 0.4
2018-Dec-11 04:30N 19°24' W 096°03'3 5.0
2018-Dec-11 04:00N 19°26' W 096°04'5 9.6
2018-Dec-11 03:30N 19°30' W 096°06'  
2018-Dec-07 02:29N 29°21' W 094°47'612.3
2018-Dec-07 02:00N 29°26' W 094°50'612.4
2018-Dec-07 01:29N 29°32' W 094°53'612.7
2018-Dec-07 01:01N 29°37' W 094°57'611.5
2018-Dec-07 00:31N 29°42' W 094°60'4 8.1
2018-Dec-07 00:00N 29°44' W 095°04'3 5.3
2018-Dec-06 23:30N 29°44' W 095°07'3 5.4
2018-Dec-06 23:00N 29°45' W 095°10'3 5.9
2018-Dec-06 22:29N 29°43' W 095°13'1 0.1
2018-Dec-05 21:37N 29°43' W 095°15'1 6.2
2018-Dec-05 21:29N 29°43' W 095°14'3 5.6
2018-Dec-05 20:57N 29°45' W 095°11'3 6.6
2018-Dec-05 20:29N 29°44' W 095°07'1 0.1
2018-Dec-05 14:06N 29°45' W 095°06'0 0.0
2018-Dec-05 13:27N 29°45' W 095°06'0 0.0
2018-Dec-05 12:36N 29°45' W 095°06'0 0.0
2018-Dec-05 12:27N 29°45' W 095°06'0 0.0
2018-Dec-05 11:18N 29°45' W 095°06'0 0.0
2018-Dec-05 10:57N 29°45' W 095°06'0 0.0
2018-Dec-05 10:30N 29°45' W 095°06'0 0.0
2018-Dec-05 09:54N 29°45' W 095°06'0 0.0
2018-Dec-05 09:30N 29°45' W 095°06'0 0.0
2018-Dec-05 08:57N 29°45' W 095°06'0 0.0
2018-Dec-05 07:33N 29°45' W 095°06'0 0.0
2018-Dec-05 07:30N 29°45' W 095°06'0 0.0
2018-Dec-05 05:33N 29°45' W 095°06'0 0.0
2018-Dec-05 05:27N 29°45' W 095°06'0 0.0
2018-Dec-05 04:45N 29°45' W 095°06'0 0.0
2018-Dec-05 04:30N 29°45' W 095°06'0 0.0
2018-Dec-05 03:48N 29°45' W 095°06'0 0.0
2018-Dec-04 15:29N 29°45' W 095°06'0 0.0
2018-Dec-04 14:35N 29°45' W 095°06'0 0.0
2018-Dec-04 13:47N 29°45' W 095°06'0 0.0
2018-Dec-04 13:29N 29°45' W 095°06'0 0.0
2018-Dec-04 12:47N 29°45' W 095°06'0 0.0
2018-Dec-04 12:20N 29°45' W 095°06'0 0.0
2018-Dec-04 11:56N 29°45' W 095°06'0 0.0
2018-Dec-03 13:47N 29°45' W 095°06'0 0.0
2018-Dec-03 13:29N 29°45' W 095°06'0 0.0
2018-Dec-03 12:47N 29°45' W 095°06'0 0.0
2018-Dec-03 12:02N 29°45' W 095°06'0 0.1
2018-Dec-03 11:59N 29°45' W 095°06'0 0.0
2018-Dec-03 11:23N 29°45' W 095°06'0 0.0
2018-Dec-03 10:35N 29°45' W 095°06'0 0.0
2018-Dec-03 10:26N 29°45' W 095°06'0 0.0
2018-Dec-03 09:59N 29°45' W 095°06'0 0.0
2018-Dec-03 09:14N 29°45' W 095°06'0 0.0
2018-Dec-03 08:35N 29°45' W 095°06'0 0.0
2018-Dec-03 08:20N 29°45' W 095°06'0 0.0
2018-Dec-03 07:56N 29°45' W 095°06'0 0.0
2018-Dec-03 06:17N 29°45' W 095°06'0 0.0
2018-Dec-03 05:56N 29°45' W 095°06'0 0.0
2018-Dec-03 05:26N 29°45' W 095°06'0 0.0
2018-Dec-03 04:58N 29°45' W 095°06'0 0.0
2018-Dec-03 04:28N 29°45' W 095°06'0 0.0
2018-Dec-03 03:43N 29°45' W 095°06'0 0.0
2018-Dec-03 03:16N 29°45' W 095°06'0 0.0
2018-Dec-02 20:57N 29°45' W 095°06'2 3.7
2018-Dec-02 20:29N 29°46' W 095°05'4 7.4
2018-Dec-02 20:00N 29°44' W 095°02'4 7.8
2018-Dec-02 19:30N 29°41' W 094°59'510.4
2018-Dec-02 19:00N 29°36' W 094°57'713.4
2018-Dec-02 18:30N 29°30' W 094°52'713.7
2018-Dec-02 18:00N 29°24' W 094°49'611.7
2018-Dec-02 17:29N 29°21' W 094°43'713.4
2018-Dec-02 16:58N 29°18' W 094°36'512.1
2018-Dec-02 16:30N 29°14' W 094°31'714.4
2018-Dec-02 16:00N 29°10' W 094°24'714.4
2018-Dec-02 15:30N 29°06' W 094°17'713.9
2018-Dec-02 15:00N 29°02' W 094°11'713.8
2018-Dec-02 14:30N 28°58' W 094°04'713.8
2018-Dec-02 14:00N 28°54' W 093°58'713.9
2018-Dec-02 13:31N 28°50' W 093°52'714.0
2018-Dec-02 13:00N 28°46' W 093°45'714.0
2018-Dec-02 12:31N 28°42' W 093°38'714.0
2018-Dec-02 12:01N 28°38' W 093°32'714.0
2018-Dec-02 11:30N 28°34' W 093°25'713.8
2018-Dec-02 11:00N 28°30' W 093°19'714.5
2018-Dec-02 10:30N 28°26' W 093°12'715.0
2018-Dec-02 10:00N 28°21' W 093°06'816.1
2018-Dec-02 09:30N 28°16' W 092°58'815.7
2018-Dec-02 09:00N 28°11' W 092°51'816.0
2018-Dec-02 08:30N 28°05' W 092°46'816.2
2018-Dec-02 08:00N 27°59' W 092°40'816.5
2018-Dec-02 07:30N 27°52' W 092°34'815.6
2018-Dec-02 07:00N 27°48' W 092°27'1016.1
2018-Dec-02 06:22N 27°43' W 092°17'  

Dump ship's entire track history